aviador You're here:

KMCX Decoded Metar

in
Report Time2018-02-22 06:35:00
UTC Time2018-02-22 06:38:19
Flight Rules vfr VFR
Wind060° at 09 kt
W.Decomp.*RWY 36: 4.5 kt HW 7.8 kt RCW
W.Rank060° ranks 27
Current wind is above 060° avg. (5.9)
Visibility9999 m
Phenomena:N/A
Clouds:Scattered 015 Hf
Scattered 060 Hf
Broken 120 Hf
Expected CloudBase > 400 ft AGL from Temp-Dew spread
Ceiling12,000 ft
Temp01°C
Dew Point00°C (93% RH)
AAT-4.2°C
QNH1033 hPa
Raw Report
METAR KMCX 220635Z AUTO 06009KT 10SM SCT015 SCT060 BKN120 01/00 A3050
RMK AO2 T00071005=

Extra information for KMCX:More info

Social comments